Fayette, Illinois
Current Conditions -  °F | °C
As of 1:15 PM on Saturday 20 Dec 2014 (Local Time) from KIJX Reporting Station
Overcast Overcast  
Wind Chill: 36°   Ceiling: 3000
Heat Index: 40°   Visibility: 7mi
Dew Point: 33°   Wind: 5mph
Humidity: 76%   Direction: 130°SE
Pressure: 30.22"   Gusts: NA
Location:  39.3647°N, 90.2158°W
Report Text: KIJX 201915Z AUTO 13004KT 7SM SCT017 OVC030 04/00 A3022 RMK AO2 T00420004
Loading
Personal Weather Stations






























Interactive Weather Map New forecast layout! Learn more

10-Day Weather Forecast

Advertisements
Track Severe Weather on mobile